createdAt,value
2017-10-22T00:00:34.549Z,51.48
2017-10-22T00:01:34.571Z,51.41
2017-10-22T00:02:34.626Z,51.10
2017-10-22T00:03:34.704Z,51.10
2017-10-22T00:04:34.931Z,51.68
2017-10-22T00:05:34.702Z,51.10
2017-10-22T00:06:34.761Z,50.81
2017-10-22T00:07:34.770Z,51.20
2017-10-22T00:08:34.806Z,51.20
2017-10-22T00:09:34.853Z,50.81
2017-10-22T00:10:35.124Z,51.10
2017-10-22T00:11:34.910Z,50.64
2017-10-22T00:12:35.182Z,50.71
2017-10-22T00:13:34.976Z,50.62
2017-10-22T00:14:35.011Z,50.62
2017-10-22T00:15:35.041Z,50.62
2017-10-22T00:16:35.307Z,50.52
2017-10-22T00:17:35.087Z,50.52
2017-10-22T00:18:35.240Z,50.84
2017-10-22T00:19:35.169Z,50.90
2017-10-22T00:20:35.229Z,50.62
2017-10-22T00:21:35.234Z,51.00
2017-10-22T00:22:35.523Z,50.71
2017-10-22T00:23:35.281Z,50.62
2017-10-22T00:24:35.335Z,50.62
2017-10-22T00:25:35.366Z,50.90
2017-10-22T00:26:35.400Z,51.00
2017-10-22T00:27:35.416Z,50.42
2017-10-22T00:28:35.757Z,50.42
2017-10-22T00:29:35.496Z,50.62
2017-10-22T00:30:35.510Z,50.62
2017-10-22T00:31:35.559Z,50.62
2017-10-22T00:32:35.583Z,50.13
2017-10-22T00:33:35.625Z,50.23
2017-10-22T00:34:35.973Z,50.23
2017-10-22T00:35:35.669Z,50.32
2017-10-22T00:36:35.722Z,50.13
2017-10-22T00:37:35.734Z,50.32
2017-10-22T00:38:35.782Z,50.32
2017-10-22T00:39:35.797Z,50.42
2017-10-22T00:40:36.135Z,50.23
2017-10-22T00:41:35.891Z,50.23
2017-10-22T00:42:35.921Z,50.23
2017-10-22T00:43:35.978Z,50.13
2017-10-22T00:44:35.962Z,49.94
2017-10-22T00:45:35.992Z,50.04
2017-10-22T00:46:36.330Z,50.04
2017-10-22T00:47:36.058Z,50.42
2017-10-22T00:48:36.142Z,49.94
2017-10-22T00:49:36.247Z,50.13
2017-10-22T00:50:36.186Z,50.23
2017-10-22T00:51:36.186Z,50.13
2017-10-22T00:52:36.467Z,49.94
2017-10-22T00:53:36.264Z,49.94
2017-10-22T00:54:36.302Z,50.13
2017-10-22T00:55:36.317Z,49.94
2017-10-22T00:56:36.350Z,50.04
2017-10-22T00:57:36.378Z,50.04
2017-10-22T00:58:36.659Z,50.23
2017-10-22T00:59:36.510Z,49.27
2017-10-22T01:00:36.547Z,49.65
2017-10-22T01:01:36.525Z,49.37
2017-10-22T01:02:36.549Z,49.75
2017-10-22T01:03:36.595Z,49.75
2017-10-22T01:04:36.853Z,49.55
2017-10-22T01:05:36.637Z,50.13
2017-10-22T01:06:36.686Z,49.75
2017-10-22T01:07:36.701Z,49.55
2017-10-22T01:08:36.752Z,49.27
2017-10-22T01:09:36.789Z,50.23
2017-10-22T01:10:37.073Z,49.84
2017-10-22T01:11:36.962Z,49.75
2017-10-22T01:12:36.898Z,49.94
2017-10-22T01:13:36.912Z,50.13
2017-10-22T01:14:36.923Z,49.27
2017-10-22T01:15:36.971Z,49.65
2017-10-22T01:16:37.009Z,49.94
2017-10-22T01:17:37.289Z,49.27
2017-10-22T01:18:37.072Z,49.65
2017-10-22T01:19:37.095Z,49.65
2017-10-22T01:20:37.193Z,49.65
2017-10-22T01:21:37.217Z,49.46
2017-10-22T01:22:37.184Z,49.55
2017-10-22T01:23:37.214Z,49.24
2017-10-22T01:24:37.541Z,49.65
2017-10-22T01:25:37.332Z,49.75
2017-10-22T01:26:37.328Z,49.63
2017-10-22T01:27:37.343Z,49.05
2017-10-22T01:28:37.399Z,49.65
2017-10-22T01:29:37.430Z,49.43
2017-10-22T01:30:37.463Z,49.53
2017-10-22T01:31:37.726Z,49.63
2017-10-22T01:32:37.501Z,49.34
2017-10-22T01:33:37.551Z,49.46
2017-10-22T01:34:37.569Z,48.66
2017-10-22T01:35:37.663Z,48.76
2017-10-22T01:36:37.784Z,48.69
2017-10-22T01:37:37.673Z,48.86
2017-10-22T01:38:37.947Z,49.43
2017-10-22T01:39:37.791Z,49.43
2017-10-22T01:40:37.791Z,48.86
2017-10-22T01:41:37.792Z,48.95
2017-10-22T01:42:37.824Z,48.76
2017-10-22T01:43:37.875Z,48.66
2017-10-22T01:44:37.927Z,49.34
2017-10-22T01:45:38.238Z,48.86
2017-10-22T01:46:37.951Z,48.95
2017-10-22T01:47:38.034Z,48.86
2017-10-22T01:48:38.021Z,48.57
2017-10-22T01:49:38.051Z,48.66
2017-10-22T01:50:38.098Z,48.76
2017-10-22T01:51:38.446Z,48.86
2017-10-22T01:52:38.200Z,49.34
2017-10-22T01:53:38.177Z,49.73
2017-10-22T01:54:38.224Z,50.30
2017-10-22T01:55:38.262Z,50.40
2017-10-22T01:56:38.294Z,50.59
2017-10-22T01:57:38.309Z,50.01
2017-10-22T01:58:38.612Z,50.30
2017-10-22T01:59:38.385Z,50.59
2017-10-22T02:00:38.463Z,50.40
2017-10-22T02:01:38.451Z,50.40
2017-10-22T02:02:38.514Z,50.01
2017-10-22T02:03:38.529Z,50.11
2017-10-22T02:04:38.545Z,50.30
2017-10-22T02:05:38.891Z,50.11
2017-10-22T02:06:38.769Z,50.21
2017-10-22T02:07:38.684Z,50.01
2017-10-22T02:08:38.829Z,49.82
2017-10-22T02:09:38.712Z,49.73
2017-10-22T02:10:38.766Z,50.11
2017-10-22T02:11:38.812Z,50.01
2017-10-22T02:12:39.157Z,50.21
2017-10-22T02:13:38.835Z,50.01
2017-10-22T02:14:38.867Z,50.11
2017-10-22T02:15:38.896Z,50.11
2017-10-22T02:16:38.929Z,49.43
2017-10-22T02:17:39.050Z,50.11
2017-10-22T02:18:38.994Z,49.53
2017-10-22T02:19:39.324Z,49.43
2017-10-22T02:20:39.059Z,49.63
2017-10-22T02:21:39.072Z,50.11
2017-10-22T02:22:39.130Z,50.21
2017-10-22T02:23:39.207Z,50.21
2017-10-22T02:24:39.169Z,50.21
2017-10-22T02:25:39.236Z,49.53
2017-10-22T02:26:39.500Z,49.43
2017-10-22T02:27:39.264Z,49.53
2017-10-22T02:28:39.299Z,49.63
2017-10-22T02:29:39.335Z,49.73
2017-10-22T02:30:39.365Z,49.24
2017-10-22T02:31:39.392Z,49.73
2017-10-22T02:32:39.446Z,49.73
2017-10-22T02:33:39.743Z,49.73
2017-10-22T02:34:39.546Z,49.82
2017-10-22T02:35:39.524Z,49.73
2017-10-22T02:36:39.556Z,49.53
2017-10-22T02:37:39.586Z,49.15
2017-10-22T02:38:39.617Z,49.43
2017-10-22T02:39:39.969Z,49.15
2017-10-22T02:40:39.836Z,49.63
2017-10-22T02:41:39.717Z,49.05
2017-10-22T02:42:39.838Z,49.34
2017-10-22T02:43:39.838Z,49.15
2017-10-22T02:44:39.865Z,49.82
2017-10-22T02:45:40.092Z,49.43
2017-10-22T02:46:39.872Z,49.43
2017-10-22T02:47:39.922Z,49.53
2017-10-22T02:48:39.939Z,49.63
2017-10-22T02:49:40.095Z,48.86
2017-10-22T02:50:40.003Z,49.05
2017-10-22T02:51:40.355Z,48.76
2017-10-22T02:52:40.114Z,48.76
2017-10-22T02:53:40.113Z,48.47
2017-10-22T02:54:40.168Z,48.38
2017-10-22T02:55:40.176Z,48.28
2017-10-22T02:56:40.209Z,48.47
2017-10-22T02:57:40.497Z,48.57
2017-10-22T02:58:40.259Z,48.76
2017-10-22T02:59:40.305Z,48.35
2017-10-22T03:00:40.337Z,48.66
2017-10-22T03:01:40.373Z,48.38
2017-10-22T03:02:40.404Z,48.54
2017-10-22T03:03:40.734Z,48.57
2017-10-22T03:04:40.447Z,48.57
2017-10-22T03:05:40.511Z,48.57
2017-10-22T03:06:40.529Z,48.57
2017-10-22T03:07:40.541Z,48.38
2017-10-22T03:08:40.575Z,48.38
2017-10-22T03:09:40.965Z,48.28
2017-10-22T03:10:40.660Z,48.47
2017-10-22T03:11:40.686Z,48.38
2017-10-22T03:12:40.721Z,48.57
2017-10-22T03:13:40.766Z,48.18
2017-10-22T03:14:40.868Z,48.28
2017-10-22T03:15:41.102Z,48.35
2017-10-22T03:16:40.848Z,48.66
2017-10-22T03:17:40.899Z,47.89
2017-10-22T03:18:40.913Z,48.44
2017-10-22T03:19:40.925Z,48.64
2017-10-22T03:20:40.965Z,48.28
2017-10-22T03:21:41.323Z,48.38
2017-10-22T03:22:41.047Z,47.89
2017-10-22T03:23:41.068Z,48.35
2017-10-22T03:24:41.142Z,48.38
2017-10-22T03:25:41.142Z,48.35
2017-10-22T03:26:41.156Z,48.18
2017-10-22T03:27:41.483Z,47.99
2017-10-22T03:28:41.224Z,47.60
2017-10-22T03:29:41.245Z,47.58
2017-10-22T03:30:41.307Z,47.77
2017-10-22T03:31:41.329Z,48.16
2017-10-22T03:32:41.363Z,47.51
2017-10-22T03:33:41.628Z,47.60
2017-10-22T03:34:41.503Z,47.77
2017-10-22T03:35:41.450Z,47.67
2017-10-22T03:36:41.484Z,47.70
2017-10-22T03:37:41.513Z,47.67
2017-10-22T03:38:41.555Z,48.06
2017-10-22T03:39:41.811Z,47.97
2017-10-22T03:40:41.611Z,47.87
2017-10-22T03:41:41.627Z,47.80
2017-10-22T03:42:41.658Z,47.77
2017-10-22T03:43:41.757Z,47.97
2017-10-22T03:44:41.719Z,47.58
2017-10-22T03:45:42.177Z,47.39
2017-10-22T03:46:41.805Z,47.77
2017-10-22T03:47:41.831Z,47.87
2017-10-22T03:48:41.881Z,48.06
2017-10-22T03:49:41.903Z,47.87
2017-10-22T03:50:41.935Z,47.87
2017-10-22T03:51:42.061Z,47.58
2017-10-22T03:52:42.232Z,47.87
2017-10-22T03:53:42.045Z,47.49
2017-10-22T03:54:42.091Z,48.16
2017-10-22T03:55:42.102Z,48.06
2017-10-22T03:56:42.148Z,47.67
2017-10-22T03:57:42.142Z,47.58
2017-10-22T03:58:42.181Z,47.29
2017-10-22T03:59:42.449Z,47.29
2017-10-22T04:00:42.427Z,47.19
2017-10-22T04:01:42.282Z,47.10
2017-10-22T04:02:42.292Z,47.29
2017-10-22T04:03:42.327Z,47.10
2017-10-22T04:04:42.356Z,47.19
2017-10-22T04:05:42.388Z,47.19
2017-10-22T04:06:42.687Z,47.19
2017-10-22T04:07:42.466Z,47.97
2017-10-22T04:08:42.556Z,48.25
2017-10-22T04:09:42.532Z,48.44
2017-10-22T04:10:42.559Z,48.35
2017-10-22T04:11:42.584Z,48.74
2017-10-22T04:12:42.607Z,49.12
2017-10-22T04:13:43.063Z,48.74
2017-10-22T04:14:42.688Z,49.60
2017-10-22T04:15:42.764Z,49.32
2017-10-22T04:16:42.733Z,49.51
2017-10-22T04:17:42.785Z,48.93
2017-10-22T04:18:43.117Z,49.60
2017-10-22T04:19:42.844Z,49.60
2017-10-22T04:20:43.134Z,49.51
2017-10-22T04:21:42.898Z,49.60
2017-10-22T04:22:42.939Z,49.60
2017-10-22T04:23:42.952Z,49.60
2017-10-22T04:24:43.004Z,50.09
2017-10-22T04:25:43.034Z,50.09
2017-10-22T04:26:43.047Z,50.09
2017-10-22T04:27:43.117Z,50.27
2017-10-22T04:28:43.146Z,50.18
2017-10-22T04:29:43.149Z,49.79
2017-10-22T04:30:43.281Z,50.18
2017-10-22T04:31:43.221Z,50.18
2017-10-22T04:32:43.235Z,50.09
2017-10-22T04:33:43.664Z,50.27
2017-10-22T04:34:43.348Z,50.18
2017-10-22T04:35:43.347Z,50.47
2017-10-22T04:36:43.380Z,50.66
2017-10-22T04:37:43.424Z,50.85
2017-10-22T04:38:43.489Z,50.76
2017-10-22T04:39:43.460Z,50.76
2017-10-22T04:40:43.809Z,50.76
2017-10-22T04:41:43.540Z,50.76
2017-10-22T04:42:43.610Z,50.66
2017-10-22T04:43:43.609Z,50.57
2017-10-22T04:44:43.653Z,50.85
2017-10-22T04:45:43.662Z,50.27
2017-10-22T04:46:43.716Z,50.76
2017-10-22T04:47:44.027Z,50.85
2017-10-22T04:48:43.756Z,50.95
2017-10-22T04:49:43.779Z,50.47
2017-10-22T04:50:43.831Z,51.05
2017-10-22T04:51:43.851Z,51.14
2017-10-22T04:52:43.866Z,51.14
2017-10-22T04:53:43.902Z,51.05
2017-10-22T04:54:44.301Z,51.14
2017-10-22T04:55:43.968Z,50.95
2017-10-22T04:56:44.036Z,50.95
2017-10-22T04:57:44.038Z,50.85
2017-10-22T04:58:44.088Z,50.95
2017-10-22T04:59:44.092Z,50.95
2017-10-22T05:00:44.119Z,51.05
2017-10-22T05:01:44.453Z,51.34
2017-10-22T05:02:44.180Z,51.43
2017-10-22T05:03:44.218Z,51.43
2017-10-22T05:04:44.310Z,50.95
2017-10-22T05:05:44.344Z,51.24
2017-10-22T05:06:44.356Z,51.24
2017-10-22T05:07:44.350Z,51.43
2017-10-22T05:08:44.670Z,51.53
2017-10-22T05:09:44.422Z,51.62
2017-10-22T05:10:44.437Z,51.43
2017-10-22T05:11:44.498Z,51.14
2017-10-22T05:12:44.516Z,51.53
2017-10-22T05:13:44.555Z,51.53
2017-10-22T05:14:44.870Z,51.34
2017-10-22T05:15:44.593Z,51.72
2017-10-22T05:16:44.629Z,51.53
2017-10-22T05:17:44.692Z,51.43
2017-10-22T05:18:44.711Z,51.53
2017-10-22T05:19:44.757Z,51.72
2017-10-22T05:20:45.050Z,52.01
2017-10-22T05:21:44.801Z,52.20
2017-10-22T05:22:44.836Z,52.20
2017-10-22T05:23:44.858Z,52.11
2017-10-22T05:24:44.883Z,52.01
2017-10-22T05:25:44.951Z,51.92
2017-10-22T05:26:45.267Z,52.01
2017-10-22T05:27:44.978Z,52.11
2017-10-22T05:28:45.086Z,52.11
2017-10-22T05:29:45.058Z,52.11
2017-10-22T05:30:45.131Z,51.92
2017-10-22T05:31:45.133Z,52.01
2017-10-22T05:32:45.510Z,52.40
2017-10-22T05:33:45.200Z,52.30
2017-10-22T05:34:45.192Z,52.01
2017-10-22T05:35:45.244Z,52.20
2017-10-22T05:36:45.275Z,52.30
2017-10-22T05:37:45.305Z,52.30
2017-10-22T05:38:45.634Z,52.49
2017-10-22T05:39:45.383Z,52.49
2017-10-22T05:41:45.420Z,52.30
2017-10-22T05:42:45.446Z,52.40
2017-10-22T05:43:45.548Z,52.49
2017-10-22T05:44:45.764Z,52.30
2017-10-22T05:45:45.618Z,52.40
2017-10-22T05:46:45.575Z,52.59
2017-10-22T05:47:45.622Z,52.40
2017-10-22T05:48:45.635Z,52.78
2017-10-22T05:49:45.682Z,52.40
2017-10-22T05:50:46.188Z,52.69
2017-10-22T05:51:45.749Z,52.30
2017-10-22T05:52:45.780Z,52.30
2017-10-22T05:53:45.838Z,52.40
2017-10-22T05:54:45.830Z,52.40
2017-10-22T05:55:45.925Z,52.20
2017-10-22T05:56:46.267Z,52.40
2017-10-22T05:57:45.935Z,52.30
2017-10-22T05:58:45.970Z,52.30
2017-10-22T05:59:46.003Z,52.49
2017-10-22T06:00:46.033Z,52.59
2017-10-22T06:01:46.102Z,52.30
2017-10-22T06:02:46.440Z,52.49
2017-10-22T06:03:46.129Z,52.49
2017-10-22T06:04:46.157Z,52.30
2017-10-22T06:05:46.200Z,52.40
2017-10-22T06:06:46.230Z,52.49
2017-10-22T06:07:46.271Z,52.20
2017-10-22T06:08:46.587Z,52.11
2017-10-22T06:09:46.316Z,52.30
2017-10-22T06:10:46.347Z,52.59
2017-10-22T06:11:46.499Z,52.49
2017-10-22T06:12:46.401Z,52.59
2017-10-22T06:13:46.443Z,52.40
2017-10-22T06:14:46.770Z,52.40
2017-10-22T06:15:46.525Z,52.11
2017-10-22T06:16:46.537Z,52.20
2017-10-22T06:17:46.598Z,52.59
2017-10-22T06:18:46.686Z,52.11
2017-10-22T06:19:46.619Z,52.40
2017-10-22T06:20:46.962Z,52.49
2017-10-22T06:21:46.676Z,52.78
2017-10-22T06:22:46.709Z,52.49
2017-10-22T06:23:46.809Z,52.59
2017-10-22T06:24:46.771Z,52.30
2017-10-22T06:25:46.824Z,52.11
2017-10-22T06:26:46.884Z,52.30
2017-10-22T06:27:47.271Z,52.11
2017-10-22T06:28:46.924Z,52.40
2017-10-22T06:29:46.961Z,52.59
2017-10-22T06:30:46.980Z,52.87
2017-10-22T06:31:47.022Z,52.78
2017-10-22T06:32:47.040Z,52.78
2017-10-22T06:33:47.154Z,52.59
2017-10-22T06:34:47.366Z,52.69
2017-10-22T06:35:47.162Z,52.78
2017-10-22T06:36:47.210Z,52.69
2017-10-22T06:37:47.209Z,52.40
2017-10-22T06:38:47.217Z,52.59
2017-10-22T06:39:47.450Z,52.49
2017-10-22T06:40:47.295Z,52.59
2017-10-22T06:41:47.577Z,52.69
2017-10-22T06:42:47.364Z,53.07
2017-10-22T06:43:47.374Z,52.40
2017-10-22T06:44:47.403Z,52.69
2017-10-22T06:45:47.484Z,52.78
2017-10-22T06:46:47.463Z,52.78
2017-10-22T06:47:47.512Z,52.69
2017-10-22T06:48:47.840Z,53.17
2017-10-22T06:49:47.567Z,53.07
2017-10-22T06:50:47.674Z,52.87
2017-10-22T06:51:47.639Z,53.07
2017-10-22T06:52:47.653Z,52.87
2017-10-22T06:53:47.700Z,53.27
2017-10-22T06:54:47.716Z,53.17
2017-10-22T06:55:48.066Z,53.07
2017-10-22T06:56:47.780Z,52.69
2017-10-22T06:57:47.854Z,52.69
2017-10-22T06:58:47.858Z,52.87
2017-10-22T06:59:47.891Z,52.87
2017-10-22T07:00:47.905Z,52.97
2017-10-22T07:01:47.956Z,52.97
2017-10-22T07:02:48.267Z,53.17
2017-10-22T07:03:48.019Z,52.87
2017-10-22T07:04:48.045Z,53.07
2017-10-22T07:05:48.079Z,52.97
2017-10-22T07:06:48.129Z,52.78
2017-10-22T07:07:48.124Z,53.17
2017-10-22T07:08:48.211Z,53.17
2017-10-22T07:09:48.500Z,53.17
2017-10-22T07:10:48.220Z,53.27
2017-10-22T07:11:48.277Z,52.87
2017-10-22T07:12:48.294Z,53.17
2017-10-22T07:13:48.331Z,53.27
2017-10-22T07:14:48.666Z,53.45
2017-10-22T07:15:48.378Z,52.78
2017-10-22T07:16:48.665Z,52.87
2017-10-22T07:17:48.445Z,52.78
2017-10-22T07:18:48.471Z,52.78
2017-10-22T07:19:48.513Z,53.36
2017-10-22T07:20:48.540Z,53.27
2017-10-22T07:21:48.573Z,53.17
2017-10-22T07:22:48.597Z,53.27
2017-10-22T07:23:48.907Z,53.27
2017-10-22T07:24:48.680Z,52.87
2017-10-22T07:25:48.697Z,52.97
2017-10-22T07:26:48.745Z,52.97
2017-10-22T07:27:48.806Z,52.87
2017-10-22T07:28:48.830Z,53.27
2017-10-22T07:29:48.819Z,53.74
2017-10-22T07:30:49.099Z,53.74
2017-10-22T07:31:48.948Z,53.45
2017-10-22T07:32:48.915Z,53.27
2017-10-22T07:33:48.983Z,52.87
2017-10-22T07:34:48.994Z,53.27
2017-10-22T07:35:49.030Z,53.17
2017-10-22T07:36:49.042Z,52.87
2017-10-22T07:37:49.375Z,53.07
2017-10-22T07:38:49.108Z,53.17
2017-10-22T07:40:49.192Z,52.97
2017-10-22T07:41:49.223Z,52.78
2017-10-22T07:42:49.249Z,52.97
2017-10-22T07:43:49.297Z,52.69
2017-10-22T07:44:49.544Z,53.17
2017-10-22T07:45:49.531Z,52.40
2017-10-22T07:46:49.656Z,53.27
2017-10-22T07:47:49.402Z,52.97
2017-10-22T07:48:49.445Z,53.27
2017-10-22T07:49:49.448Z,53.27
2017-10-22T07:50:49.806Z,52.97
2017-10-22T07:51:49.530Z,53.17
2017-10-22T07:52:49.543Z,53.17
2017-10-22T07:53:49.583Z,52.87
2017-10-22T07:54:49.624Z,52.97
2017-10-22T07:55:49.658Z,52.97
2017-10-22T07:56:49.925Z,53.07
2017-10-22T07:57:49.707Z,53.07
2017-10-22T07:58:49.745Z,53.07
2017-10-22T07:59:49.784Z,52.78
2017-10-22T08:00:49.810Z,52.97
2017-10-22T08:01:49.853Z,52.97
2017-10-22T08:02:50.124Z,53.27
2017-10-22T08:03:49.906Z,53.00
2017-10-22T08:04:49.939Z,53.07
2017-10-22T08:05:49.963Z,52.97
2017-10-22T08:06:50.004Z,53.29
2017-10-22T08:07:50.086Z,53.27
2017-10-22T08:08:50.300Z,53.27
2017-10-22T08:09:50.084Z,52.78
2017-10-22T08:10:50.128Z,52.97
2017-10-22T08:11:50.192Z,53.07
2017-10-22T08:12:50.183Z,52.87
2017-10-22T08:13:50.258Z,53.27
2017-10-22T08:14:50.542Z,53.09
2017-10-22T08:15:50.278Z,53.94
2017-10-22T08:16:50.323Z,53.58
2017-10-22T08:17:50.353Z,53.29
2017-10-22T08:18:50.365Z,52.87
2017-10-22T08:19:50.446Z,52.91
2017-10-22T08:20:50.755Z,52.91
2017-10-22T08:21:50.488Z,53.27
2017-10-22T08:22:50.528Z,53.27
2017-10-22T08:23:50.543Z,53.29
2017-10-22T08:24:50.563Z,53.19
2017-10-22T08:25:50.637Z,53.29
2017-10-22T08:26:50.889Z,52.91
2017-10-22T08:27:50.658Z,52.91
2017-10-22T08:28:50.689Z,53.39
2017-10-22T08:29:50.734Z,53.29
2017-10-22T08:30:50.774Z,53.19
2017-10-22T08:31:50.790Z,52.81
2017-10-22T08:32:51.075Z,53.39
2017-10-22T08:33:50.849Z,53.00
2017-10-22T08:34:50.868Z,53.29
2017-10-22T08:35:50.922Z,53.29
2017-10-22T08:36:50.934Z,53.29
2017-10-22T08:37:50.992Z,53.00
2017-10-22T08:38:51.248Z,53.19
2017-10-22T08:39:51.044Z,52.91
2017-10-22T08:40:51.081Z,53.00
2017-10-22T08:41:51.112Z,52.91
2017-10-22T08:42:51.143Z,53.29
2017-10-22T08:43:51.172Z,52.91
2017-10-22T08:44:51.459Z,52.91
2017-10-22T08:45:51.220Z,53.29
2017-10-22T08:46:51.269Z,52.81
2017-10-22T08:47:51.316Z,52.87
2017-10-22T08:48:51.311Z,53.29
2017-10-22T08:49:51.356Z,52.91
2017-10-22T08:50:51.631Z,53.00
2017-10-22T08:51:51.426Z,52.91
2017-10-22T08:52:51.458Z,53.55
2017-10-22T08:53:51.475Z,53.48
2017-10-22T08:54:51.530Z,53.39
2017-10-22T08:55:51.547Z,53.09
2017-10-22T08:56:51.872Z,53.00
2017-10-22T08:57:51.622Z,53.09
2017-10-22T08:58:51.648Z,53.09
2017-10-22T08:59:51.701Z,53.29
2017-10-22T09:00:51.701Z,52.91
2017-10-22T09:01:51.753Z,52.97
2017-10-22T09:02:51.776Z,52.87
2017-10-22T09:03:52.093Z,52.71
2017-10-22T09:04:51.838Z,52.78
2017-10-22T09:05:51.855Z,52.87
2017-10-22T09:06:51.897Z,53.29
2017-10-22T09:07:52.046Z,53.09
2017-10-22T09:08:51.957Z,52.87
2017-10-22T09:09:52.044Z,53.09
2017-10-22T09:10:52.281Z,53.55
2017-10-22T09:11:52.041Z,53.09
2017-10-22T09:12:52.635Z,53.27
2017-10-22T09:13:52.129Z,53.29
2017-10-22T09:14:52.189Z,52.91
2017-10-22T09:15:52.216Z,53.29
2017-10-22T09:16:52.206Z,52.81
2017-10-22T09:17:52.508Z,52.91
2017-10-22T09:18:52.268Z,52.78
2017-10-22T09:19:52.309Z,53.39
2017-10-22T09:20:52.347Z,52.97
2017-10-22T09:21:52.360Z,53.09
2017-10-22T09:22:52.386Z,53.00
2017-10-22T09:23:52.432Z,52.52
2017-10-22T09:24:52.732Z,53.19
2017-10-22T09:25:52.501Z,53.09
2017-10-22T09:26:52.539Z,53.09
2017-10-22T09:27:52.579Z,52.71
2017-10-22T09:28:52.606Z,53.29
2017-10-22T09:29:52.648Z,53.09
2017-10-22T09:30:52.725Z,53.00
2017-10-22T09:31:52.927Z,53.00
2017-10-22T09:32:52.730Z,53.07
2017-10-22T09:33:52.740Z,53.09
2017-10-22T09:34:52.784Z,52.91
2017-10-22T09:35:52.841Z,52.81
2017-10-22T09:36:52.964Z,53.00
2017-10-22T09:37:52.880Z,52.81
2017-10-22T09:38:53.189Z,52.91
2017-10-22T09:39:52.927Z,52.91
2017-10-22T09:40:53.132Z,53.00
2017-10-22T09:41:52.992Z,53.00
2017-10-22T09:42:53.027Z,53.00
2017-10-22T09:43:53.083Z,52.81
2017-10-22T09:44:53.114Z,53.27
2017-10-22T09:45:53.434Z,52.81
2017-10-22T09:46:53.167Z,53.27
2017-10-22T09:47:53.198Z,53.09
2017-10-22T09:48:53.212Z,53.27
2017-10-22T09:49:53.268Z,53.00
2017-10-22T09:50:53.300Z,53.09
2017-10-22T09:51:53.334Z,52.91
2017-10-22T09:52:53.361Z,53.00
2017-10-22T09:53:53.373Z,53.09
2017-10-22T09:54:53.425Z,52.91
2017-10-22T09:55:53.442Z,52.81
2017-10-22T09:56:53.521Z,53.00
2017-10-22T09:57:53.517Z,53.09
2017-10-22T09:58:53.798Z,53.19
2017-10-22T09:59:53.565Z,53.09
2017-10-22T10:00:53.596Z,53.00
2017-10-22T10:01:53.626Z,53.09
2017-10-22T10:02:53.725Z,53.09
2017-10-22T10:03:53.687Z,52.91
2017-10-22T10:04:53.728Z,53.09
2017-10-22T10:05:54.017Z,52.81
2017-10-22T10:06:53.803Z,52.91
2017-10-22T10:07:53.815Z,53.19
2017-10-22T10:08:53.855Z,52.40
2017-10-22T10:09:53.899Z,52.42
2017-10-22T10:10:53.939Z,53.19
2017-10-22T10:11:53.959Z,53.19
2017-10-22T10:12:54.244Z,52.81
2017-10-22T10:13:54.021Z,53.09
2017-10-22T10:14:54.040Z,53.29
2017-10-22T10:15:54.071Z,53.09
2017-10-22T10:16:54.108Z,53.29
2017-10-22T10:17:54.186Z,52.91
2017-10-22T10:18:54.171Z,53.09
2017-10-22T10:19:54.502Z,53.09
2017-10-22T10:20:54.228Z,53.09
2017-10-22T10:21:54.264Z,53.19
2017-10-22T10:22:54.315Z,53.19
2017-10-22T10:23:54.345Z,53.00
2017-10-22T10:24:54.361Z,52.52
2017-10-22T10:25:54.637Z,52.81
2017-10-22T10:26:54.417Z,52.91
2017-10-22T10:27:54.450Z,52.81
2017-10-22T10:28:54.506Z,52.42
2017-10-22T10:29:54.511Z,52.52
2017-10-22T10:30:54.578Z,52.71
2017-10-22T10:31:54.947Z,53.00
2017-10-22T10:32:54.674Z,53.29
2017-10-22T10:33:54.642Z,53.09
2017-10-22T10:34:54.700Z,53.07
2017-10-22T10:35:54.708Z,52.49
2017-10-22T10:36:54.738Z,53.09
2017-10-22T10:37:55.089Z,53.09
2017-10-22T10:38:54.836Z,52.71
2017-10-22T10:39:54.849Z,53.09
2017-10-22T10:40:54.894Z,52.69
2017-10-22T10:41:54.911Z,52.69
2017-10-22T10:42:54.933Z,53.09
2017-10-22T10:43:55.343Z,52.59
2017-10-22T10:44:54.993Z,53.17
2017-10-22T10:45:55.031Z,53.17
2017-10-22T10:46:55.075Z,53.17
2017-10-22T10:47:55.144Z,53.09
2017-10-22T10:48:55.148Z,52.71
2017-10-22T10:49:55.422Z,52.69
2017-10-22T10:50:55.195Z,52.71
2017-10-22T10:51:55.226Z,52.97
2017-10-22T10:52:55.267Z,52.49
2017-10-22T10:53:55.422Z,53.19
2017-10-22T10:54:55.330Z,53.19
2017-10-22T10:55:55.662Z,52.78
2017-10-22T10:56:55.370Z,52.87
2017-10-22T10:57:55.424Z,53.17
2017-10-22T10:58:55.437Z,53.07
2017-10-22T10:59:55.481Z,53.19
2017-10-22T11:00:55.648Z,53.17
2017-10-22T11:01:55.799Z,52.87
2017-10-22T11:02:55.569Z,52.78
2017-10-22T11:03:55.654Z,53.17
2017-10-22T11:04:55.641Z,52.97
2017-10-22T11:05:55.671Z,52.69
2017-10-22T11:06:55.721Z,52.87
2017-10-22T11:07:56.037Z,53.07
2017-10-22T11:08:55.952Z,53.17
2017-10-22T11:09:55.781Z,53.07
2017-10-22T11:10:55.858Z,53.07
2017-10-22T11:11:55.858Z,53.07
2017-10-22T11:12:55.879Z,52.97
2017-10-22T11:13:56.163Z,52.97
2017-10-22T11:14:55.962Z,52.87
2017-10-22T11:15:55.991Z,52.87
2017-10-22T11:16:56.009Z,52.97
2017-10-22T11:17:56.515Z,52.97
2017-10-22T11:18:56.719Z,52.87
2017-10-22T11:19:56.425Z,53.09
2017-10-22T11:20:56.249Z,53.00
2017-10-22T11:21:56.191Z,52.87
2017-10-22T11:22:56.303Z,52.69
2017-10-22T11:23:56.269Z,52.91
2017-10-22T11:24:56.308Z,52.87
2017-10-22T11:25:56.563Z,52.87
2017-10-22T11:26:56.319Z,52.87
2017-10-22T11:27:56.352Z,52.78
2017-10-22T11:28:56.488Z,52.87
2017-10-22T11:29:56.416Z,52.87
2017-10-22T11:30:56.492Z,53.29
2017-10-22T11:31:56.727Z,53.29
2017-10-22T11:32:56.568Z,53.29
2017-10-22T11:33:56.645Z,53.00
2017-10-22T11:34:56.590Z,53.07
2017-10-22T11:35:56.632Z,52.87
2017-10-22T11:36:56.661Z,52.91
2017-10-22T11:37:56.788Z,52.91
2017-10-22T11:38:57.154Z,53.00
2017-10-22T11:39:56.737Z,52.87
2017-10-22T11:40:56.764Z,52.87
2017-10-22T11:41:56.796Z,52.78
2017-10-22T11:42:56.828Z,53.19
2017-10-22T11:43:56.881Z,53.27
2017-10-22T11:44:56.963Z,53.19
2017-10-22T11:45:57.251Z,52.97
2017-10-22T11:46:57.007Z,52.81
2017-10-22T11:47:56.985Z,53.29
2017-10-22T11:48:57.038Z,53.29
2017-10-22T11:49:57.081Z,53.29
2017-10-22T11:50:57.105Z,52.91
2017-10-22T11:51:57.264Z,53.00
2017-10-22T11:52:57.473Z,53.07
2017-10-22T11:53:57.177Z,53.19
2017-10-22T11:54:57.207Z,53.19
2017-10-22T11:55:57.281Z,53.19
2017-10-22T11:56:57.272Z,52.81
2017-10-22T11:57:57.390Z,53.00
2017-10-22T11:58:57.351Z,53.09
2017-10-22T11:59:57.669Z,52.52
2017-10-22T12:00:57.407Z,53.19
2017-10-22T12:01:57.449Z,52.71
2017-10-22T12:02:57.463Z,52.52
2017-10-22T12:03:57.510Z,53.00
2017-10-22T12:04:57.540Z,53.19
2017-10-22T12:05:57.563Z,52.81
2017-10-22T12:06:57.861Z,52.71
2017-10-22T12:07:57.651Z,52.42
2017-10-22T12:08:57.673Z,52.71
2017-10-22T12:09:57.717Z,53.00
2017-10-22T12:10:57.749Z,52.91
2017-10-22T12:11:57.749Z,52.71
2017-10-22T12:12:57.809Z,53.00
2017-10-22T12:13:58.259Z,52.33
2017-10-22T12:14:57.851Z,53.00
2017-10-22T12:15:57.925Z,52.61
2017-10-22T12:16:57.925Z,52.71
2017-10-22T12:18:57.982Z,52.81
2017-10-22T12:19:58.000Z,52.13
2017-10-22T12:20:58.422Z,52.33
2017-10-22T12:21:58.068Z,52.33
2017-10-22T12:22:58.120Z,52.33
2017-10-22T12:23:58.176Z,52.23
2017-10-22T12:24:58.174Z,52.33
2017-10-22T12:25:58.217Z,52.52
2017-10-22T12:26:58.247Z,51.94
2017-10-22T12:27:58.599Z,52.52
2017-10-22T12:28:58.293Z,52.35
2017-10-22T12:29:58.325Z,52.42
2017-10-22T12:30:58.394Z,52.23
2017-10-22T12:31:58.447Z,51.97
2017-10-22T12:32:58.494Z,52.16
2017-10-22T12:33:58.499Z,52.25
2017-10-22T12:34:58.816Z,52.16
2017-10-22T12:35:58.520Z,52.16
2017-10-22T12:36:58.662Z,52.16
2017-10-22T12:37:58.613Z,52.06
2017-10-22T12:38:58.631Z,51.97
2017-10-22T12:39:58.699Z,52.06
2017-10-22T12:40:58.761Z,51.58
2017-10-22T12:41:58.979Z,52.06
2017-10-22T12:42:58.942Z,52.16
2017-10-22T12:43:58.817Z,52.35
2017-10-22T12:44:58.831Z,51.48
2017-10-22T12:45:58.873Z,52.16
2017-10-22T12:46:58.906Z,52.25
2017-10-22T12:47:59.086Z,51.48
2017-10-22T12:48:59.252Z,51.58
2017-10-22T12:49:58.987Z,51.48
2017-10-22T12:50:59.001Z,52.25
2017-10-22T12:51:59.140Z,52.06
2017-10-22T12:52:59.140Z,51.20
2017-10-22T12:53:59.141Z,51.58
2017-10-22T12:54:59.172Z,51.58
2017-10-22T12:55:59.479Z,51.20